Main page
METAR-TAF:

METAR-TAF

Airports :

Bristol, England

Bristol Airport

latitude: 51-23N, longitude: 002-43W, elevation: 189 m

Current weather observation

The report was made 42 minutes ago, at 01:50 UTC
Wind 13 kt from the West
Temperature 14°C
Humidity 94%
Pressure 1013 hPa
Visibility 10 km or more
Broken clouds at a height of 1900 ft
Overcast at a height of 2800 ft

METAR: EGGD 240150Z AUTO 27013KT 9999 BKN019 OVC028 14/13 Q1013

Time: 03:32 (02:32 UTC)

Forecast

The report was made 3 hours and 30 minutes ago, at 23:02 UTC
Forecast valid from 24 at 00 UTC to 24 at 24 UTC
Wind 7 kt from the West
Visibility 10 km or more
Few clouds at a height of 1200 ft
Scattered clouds at a height of 2500 ft
Temporary
from 24 at 01 UTC to 24 at 06 UTC
Visibility: 8000 m
Broken clouds at a height of 800 ft
light rain
Becoming
from 24 at 03 UTC to 24 at 06 UTC
Wind 10 kt from the North/Northwest

TAF: EGGD 232302Z 2400/2424 27007KT 9999 FEW012 SCT025 TEMPO 2401/2406 8000 -RA BKN008 BECMG 2403/2406 33010KT

Weather observations and forecasts of more than 4000 airports (METAR and TAF reports).

The available stations are represented by yellow and red dots on the map.

Hover mouse over dot to see the name of the station.

Then click to see weather observations and forecasts.

To change the map : click on the green buttons with a black cross to zoom in, on the green button with a dash to zoom out, or on the green arrows for adjacent maps.


METAR-TAF: